Portada
METAR-TAF:

METAR-TAF

Aeroports :

Brisbane, Austràlia

latitud: 27-23S, longitud: 153-06E, altitud: 4 m

Observació

L'informe es va fer fa 45 minuts, a les 17:00 UTC
Vent 5 kt del Sud/Sud-Oest
Temperatura 12°C
Humitat 88%
Pressió 1015 hPa
Visibilitat 10 km o més
sense núvols per sota de 1500 mi sense presència de cumulonimbus.

METAR: YBBN 141700Z 21005KT CAVOK 12/10 Q1015

Hora: 03:45 (17:45 UTC)

Pronòstic

L'informe es va fer fa 39 minuts, a les 17:06 UTC
Pronòstic vàlid del 14 a les 18 UTC al 16 a les 00 UTC
Vent 5 kt del Sud/Sud-Oest
Visibilitat 10 km o més
Núvols disperses a una alçada de 2500 ft
A partir de les 15 a les 0300 UTC
Vent 6 kt del Nord-Est
Visibilitat 10 km o més
Núvols disperses a una alçada de 3000 ft
A partir de les 15 a les 1100 UTC
Vent 6 kt del Sud/Sud-Oest
Visibilitat 10 km o més
Escasses núvols a una alçada de 2500 ft

TAF: YBBN 141706Z 1418/1600 21005KT 9999 SCT025 FM150300 05006KT 9999 SCT030 FM151100 21006KT 9999 FEW025

Observacions i pronòstics meteorològics de més de 4000 aeroports (METAR i TAF).

Les estacions disponibles són els punts grocs i vermells al mapa.

Posi el ratolí al punt desitjat per veure el nom de l'estació.

Feu clic per veure les observacions i els pronòstics meteorològics.

Per canviar el mapa: feu clic els botons verds amb una creu de color negre per apropar; al botó verd amb un guió per allunyar la imatge; o en les fletxes verdes per a mapes adjacents.


METAR-TAF: